| time (UTC) | temp F | wind direction | speed MPH | gust MPH | rain 1hr in | rain 24hr in | rain mn in | humidity % | barometer mb |
| 20260508204603 | 64 | 360 | 3.0 | 9.0 | 0.00 | 0.00 | 0.00 | 52 | 1011.4 |
| 20260508203057 | 64 | 360 | 4.0 | 11.0 | 0.00 | 0.00 | 0.00 | 50 | 1011.4 |
| 20260508201602 | 64 | 360 | 6.0 | 16.0 | 0.00 | 0.00 | 0.00 | 49 | 1011.6 |
| 20260508200057 | 65 | 360 | 6.0 | 14.0 | 0.00 | 0.00 | 0.00 | 48 | 1011.8 |
| 20260508194623 | 65 | 360 | 9.0 | 22.0 | 0.00 | 0.00 | 0.00 | 47 | 1011.8 |
| 20260508193106 | 66 | 360 | 10.0 | 20.0 | 0.00 | 0.00 | 0.00 | 45 | 1011.8 |
| 20260508191559 | 67 | 360 | 8.0 | 17.0 | 0.00 | 0.00 | 0.00 | 46 | 1012.2 |
| 20260508190057 | 69 | 360 | 6.0 | 16.0 | 0.00 | 0.00 | 0.00 | 46 | 1012.4 |
| 20260508184600 | 68 | 360 | 7.0 | 23.0 | 0.00 | 0.00 | 0.00 | 47 | 1012.3 |
| 20260508183055 | 67 | 360 | 10.0 | 22.0 | 0.00 | 0.00 | 0.00 | 46 | 1012.5 |
| 20260508181635 | 65 | 360 | 7.0 | 17.0 | 0.00 | 0.00 | 0.00 | 52 | 1012.7 |
| 20260508174603 | 66 | 360 | 4.0 | 17.0 | 0.00 | 0.00 | 0.00 | 50 | 1013.1 |
| 20260508173057 | 68 | 360 | 7.0 | 17.0 | 0.00 | 0.00 | 0.00 | 48 | 1013.2 |
| 20260508171602 | 68 | 360 | 5.0 | 18.0 | 0.00 | 0.00 | 0.00 | 49 | 1013.4 |
| 20260508170056 | 67 | 360 | 7.0 | 17.0 | 0.00 | 0.00 | 0.00 | 49 | 1013.7 |
| 20260508164559 | 66 | 360 | 6.0 | 14.0 | 0.00 | 0.00 | 0.00 | 52 | 1014.1 |
| 20260508163105 | 65 | 360 | 7.0 | 14.0 | 0.00 | 0.00 | 0.00 | 52 | 1014.2 |
| 20260508161605 | 64 | 360 | 7.0 | 20.0 | 0.00 | 0.00 | 0.00 | 52 | 1014.3 |
| 20260508160057 | 64 | 360 | 8.0 | 22.0 | 0.00 | 0.00 | 0.00 | 50 | 1014.5 |
| 20260508154559 | 65 | 360 | 7.0 | 20.0 | 0.00 | 0.00 | 0.00 | 51 | 1014.6 |
| 20260508153057 | 64 | 360 | 8.0 | 19.0 | 0.00 | 0.00 | 0.00 | 51 | 1014.6 |
| 20260508151609 | 63 | 360 | 5.0 | 11.0 | 0.00 | 0.00 | 0.00 | 55 | 1014.7 |
| 20260508150059 | 61 | 360 | 4.0 | 19.0 | 0.00 | 0.00 | 0.00 | 55 | 1014.7 |
| 20260508144555 | 61 | 360 | 9.0 | 19.0 | 0.00 | 0.00 | 0.00 | 53 | 1014.7 |
| 20260508143056 | 61 | 360 | 8.0 | 17.0 | 0.00 | 0.00 | 0.00 | 52 | 1014.9 |
| 20260508141601 | 61 | 360 | 5.0 | 15.0 | 0.00 | 0.00 | 0.00 | 55 | 1015.0 |
| 20260508140054 | 59 | 360 | 7.0 | 16.0 | 0.00 | 0.00 | 0.00 | 56 | 1015.1 |
| 20260508134559 | 56 | 360 | 6.0 | 12.0 | 0.00 | 0.00 | 0.00 | 60 | 1015.3 |
| 20260508133108 | 55 | 360 | 6.0 | 13.0 | 0.00 | 0.00 | 0.00 | 61 | 1015.4 |
| 20260508131556 | 53 | 360 | 2.0 | 13.0 | 0.00 | 0.00 | 0.00 | 65 | 1015.2 |
| 20260508130057 | 52 | 360 | 1.0 | 10.0 | 0.00 | 0.00 | 0.00 | 65 | 1015.3 |
| 20260508124557 | 51 | 0 | 6.0 | 12.0 | 0.00 | 0.00 | 0.00 | 68 | 1015.2 |
| 20260508123105 | 49 | 360 | 1.0 | 5.0 | 0.00 | 0.00 | 0.00 | 71 | 1015.2 |
| 20260508121557 | 48 | 0 | 2.0 | 8.0 | 0.00 | 0.00 | 0.00 | 71 | 1015.2 |
| 20260508120058 | 47 | 360 | 1.0 | 6.0 | 0.00 | 0.00 | 0.00 | 72 | 1015.1 |
| 20260508114556 | 47 | 360 | 2.0 | 8.0 | 0.00 | 0.00 | 0.00 | 72 | 1015.0 |
| 20260508113107 | 46 | 360 | 2.0 | 9.0 | 0.00 | 0.00 | 0.00 | 73 | 1014.9 |
| 20260508111602 | 46 | 0 | 2.0 | 6.0 | 0.00 | 0.00 | 0.00 | 73 | 1014.7 |
| 20260508104557 | 46 | 0 | 2.0 | 8.0 | 0.00 | 0.00 | 0.00 | 72 | 1014.6 |
| 20260508103058 | 45 | 215 | 2.0 | 9.0 | 0.00 | 0.00 | 0.00 | 72 | 1014.4 |
| 20260508101600 | 45 | 360 | 3.0 | 8.0 | 0.00 | 0.00 | 0.00 | 73 | 1014.4 |
| 20260508100058 | 45 | 186 | 2.0 | 7.0 | 0.00 | 0.00 | 0.00 | 72 | 1014.4 |
| 20260508094608 | 45 | 248 | 1.0 | 5.0 | 0.00 | 0.00 | 0.00 | 72 | 1014.5 |
| 20260508093104 | 45 | 204 | 1.0 | 6.0 | 0.00 | 0.00 | 0.00 | 72 | 1014.6 |
| 20260508091556 | 45 | 0 | 2.0 | 6.0 | 0.00 | 0.00 | 0.00 | 71 | 1014.7 |
| 20260508090057 | 45 | 360 | 1.0 | 6.0 | 0.00 | 0.00 | 0.00 | 70 | 1014.6 |
| 20260508084608 | 45 | 0 | 0.0 | 5.0 | 0.00 | 0.00 | 0.00 | 69 | 1014.7 |
| 20260508083103 | 45 | 360 | 0.0 | 4.0 | 0.00 | 0.00 | 0.00 | 68 | 1014.6 |
| 20260508081635 | 46 | 360 | 1.0 | 5.0 | 0.00 | 0.00 | 0.00 | 67 | 1014.6 |
| 20260508080054 | 46 | 360 | 1.0 | 6.0 | 0.00 | 0.00 | 0.00 | 66 | 1014.7 |
| 20260508074555 | 47 | 360 | 0.0 | 6.0 | 0.00 | 0.00 | 0.00 | 65 | 1014.5 |
| 20260508073104 | 47 | 360 | 2.0 | 8.0 | 0.00 | 0.00 | 0.00 | 65 | 1014.7 |
| 20260508071558 | 47 | 360 | 2.0 | 8.0 | 0.00 | 0.00 | 0.00 | 64 | 1014.8 |
| 20260508070106 | 48 | 360 | 3.0 | 9.0 | 0.00 | 0.00 | 0.00 | 63 | 1014.9 |
| 20260508064554 | 48 | 360 | 4.0 | 11.0 | 0.00 | 0.00 | 0.00 | 62 | 1015.0 |
| 20260508063059 | 48 | 360 | 4.0 | 9.0 | 0.00 | 0.00 | 0.00 | 61 | 1014.9 |
| 20260508061557 | 49 | 360 | 4.0 | 10.0 | 0.00 | 0.00 | 0.00 | 61 | 1015.0 |
| 20260508060106 | 49 | 360 | 5.0 | 11.0 | 0.00 | 0.00 | 0.00 | 61 | 1015.1 |
| 20260508054600 | 49 | 360 | 4.0 | 11.0 | 0.00 | 0.00 | 0.00 | 61 | 1015.1 |
| 20260508053058 | 49 | 360 | 4.0 | 11.0 | 0.00 | 0.00 | 0.00 | 61 | 1015.0 |
| 20260508051559 | 49 | 0 | 2.0 | 9.0 | 0.00 | 0.00 | 0.00 | 61 | 1015.0 |
| 20260508050057 | 50 | 360 | 3.0 | 8.0 | 0.00 | 0.00 | 0.00 | 61 | 1015.3 |
| 20260508044604 | 50 | 360 | 2.0 | 6.0 | 0.00 | 0.00 | 0.00 | 62 | 1015.2 |
| 20260508043107 | 50 | 0 | 0.0 | 4.0 | 0.00 | 0.00 | 0.00 | 62 | 1015.0 |
| 20260508041556 | 50 | 360 | 0.0 | 6.0 | 0.00 | 0.00 | 0.00 | 62 | 1014.9 |
| 20260508040101 | 50 | 360 | 1.0 | 3.0 | 0.00 | 0.00 | 0.00 | 61 | 1015.0 |
| 20260508034557 | 50 | 360 | 0.0 | 3.0 | 0.00 | 0.00 | 0.00 | 60 | 1015.1 |
| 20260508033055 | 51 | 360 | 0.0 | 5.0 | 0.00 | 0.00 | 0.00 | 59 | 1015.0 |
| 20260508031556 | 51 | 0 | 0.0 | 3.0 | 0.00 | 0.00 | 0.00 | 58 | 1015.2 |
| 20260508024559 | 52 | 360 | 1.0 | 6.0 | 0.00 | 0.00 | 0.00 | 56 | 1015.2 |
| 20260508023055 | 51 | 360 | 1.0 | 6.0 | 0.00 | 0.00 | 0.00 | 56 | 1014.8 |
| 20260508021553 | 52 | 360 | 1.0 | 5.0 | 0.00 | 0.00 | 0.00 | 55 | 1014.9 |
| 20260508020055 | 52 | 360 | 0.0 | 5.0 | 0.00 | 0.00 | 0.00 | 55 | 1014.9 |
| 20260508014555 | 52 | 360 | 1.0 | 5.0 | 0.00 | 0.00 | 0.00 | 55 | 1014.8 |
| 20260508013057 | 52 | 360 | 1.0 | 4.0 | 0.00 | 0.00 | 0.00 | 54 | 1015.1 |
| 20260508011610 | 53 | 360 | 0.0 | 2.0 | 0.00 | 0.00 | 0.00 | 53 | 1015.0 |
| 20260508010103 | 53 | 0 | 0.0 | 3.0 | 0.00 | 0.00 | 0.00 | 51 | 1015.0 |
| 20260508004607 | 54 | 360 | 0.0 | 3.0 | 0.00 | 0.00 | 0.00 | 49 | 1015.1 |
| 20260508003110 | 55 | 360 | 1.0 | 4.0 | 0.00 | 0.00 | 0.00 | 48 | 1015.0 |
| 20260508001601 | 56 | 360 | 0.0 | 3.0 | 0.00 | 0.00 | 0.00 | 46 | 1014.8 |
| 20260508000107 | 56 | 360 | 2.0 | 6.0 | 0.00 | 0.00 | 0.00 | 46 | 1014.8 |
| 20260507234607 | 57 | 360 | 1.0 | 5.0 | 0.00 | 0.00 | 0.00 | 45 | 1014.5 |
| 20260507233056 | 57 | 360 | 1.0 | 5.0 | 0.00 | 0.00 | 0.00 | 44 | 1014.7 |
| 20260507231609 | 58 | 360 | 2.0 | 8.0 | 0.00 | 0.00 | 0.00 | 44 | 1014.7 |
| 20260507230059 | 58 | 360 | 2.0 | 8.0 | 0.00 | 0.00 | 0.00 | 44 | 1014.7 |
| 20260507224601 | 59 | 360 | 3.0 | 9.0 | 0.00 | 0.00 | 0.00 | 41 | 1014.6 |
| 20260507223117 | 60 | 360 | 3.0 | 9.0 | 0.00 | 0.00 | 0.00 | 42 | 1014.7 |
| 20260507221558 | 60 | 360 | 3.0 | 9.0 | 0.00 | 0.00 | 0.00 | 43 | 1014.9 |
| 20260507220111 | 59 | 360 | 3.0 | 9.0 | 0.00 | 0.00 | 0.00 | 42 | 1014.9 |
| 20260507214601 | 59 | 360 | 3.0 | 12.0 | 0.00 | 0.00 | 0.00 | 44 | 1015.1 |
| 20260507213111 | 59 | 360 | 4.0 | 12.0 | 0.00 | 0.00 | 0.00 | 43 | 1015.0 |
| 20260507211559 | 60 | 360 | 6.0 | 16.0 | 0.00 | 0.00 | 0.00 | 42 | 1014.9 |
| 20260507210103 | 60 | 360 | 7.0 | 18.0 | 0.00 | 0.00 | 0.00 | 41 | 1014.9 |